Terminal Aerodrome Forecast
Issued by NWS Wichita, KS

Home | Current Version | Previous Version | Text Only | Print | Product List | Glossary On
Versions: 1 2 3 4 5 6 7 8 9 10 11 12 13 14 15 16 17 18
629
FTUS43 KICT 272325
TAFICT
TAF
KICT 272325Z 2800/2824 16011KT P6SM BKN200
     FM280300 17012KT P6SM SCT200 WS020/20040KT
     FM280600 18013KT 4SM BR BKN010 WS020/21045KT
     FM281300 20013KT P6SM BKN025
     FM281700 21018G26KT P6SM BKN200=

USA.gov is the U.S. government's official web portal to all federal, state and local government web resources and services.